createdAt,value
2019-06-10T00:01:41.838Z,3.27
2019-06-10T00:04:12.589Z,3.73
2019-06-10T00:06:42.527Z,2.80
2019-06-10T00:09:11.916Z,6.87
2019-06-10T00:11:42.185Z,4.87
2019-06-10T00:14:13.884Z,4.93
2019-06-10T00:16:43.718Z,4.30
2019-06-10T00:19:13.756Z,5.80
2019-06-10T00:21:42.775Z,3.70
2019-06-10T00:24:12.444Z,5.27
2019-06-10T00:26:42.770Z,3.73
2019-06-10T00:29:14.165Z,3.57
2019-06-10T00:31:43.155Z,10.40
2019-06-10T00:34:13.199Z,4.03
2019-06-10T00:36:41.921Z,5.13
2019-06-10T00:39:13.342Z,3.97
2019-06-10T00:41:42.848Z,3.67
2019-06-10T00:44:12.954Z,4.23
2019-06-10T00:46:41.934Z,6.83
2019-06-10T00:49:14.391Z,4.40
2019-06-10T00:51:41.465Z,4.53
2019-06-10T00:54:15.338Z,6.53
2019-06-10T00:56:42.367Z,5.17
2019-06-10T00:59:14.770Z,7.53
2019-06-10T01:01:41.888Z,5.07
2019-06-10T01:04:15.973Z,5.07
2019-06-10T01:06:43.287Z,9.83
2019-06-10T01:09:14.781Z,5.87
2019-06-10T01:11:42.369Z,5.93
2019-06-10T01:14:15.420Z,4.33
2019-06-10T01:16:45.603Z,6.43
2019-06-10T01:19:15.866Z,5.07
2019-06-10T01:21:44.572Z,5.37
2019-06-10T01:24:14.789Z,4.77
2019-06-10T01:26:44.696Z,5.43
2019-06-10T01:29:15.578Z,4.40
2019-06-10T01:31:44.611Z,5.13
2019-06-10T01:34:13.946Z,5.40
2019-06-10T01:36:43.921Z,4.00
2019-06-10T01:39:14.730Z,8.87
2019-06-10T01:41:42.962Z,4.23
2019-06-10T01:44:14.675Z,5.17
2019-06-10T01:46:46.657Z,7.00
2019-06-10T01:49:16.766Z,6.67
2019-06-10T01:51:45.762Z,5.63
2019-06-10T01:54:15.619Z,8.00
2019-06-10T01:56:45.171Z,17.83
2019-06-10T01:59:15.487Z,6.23
2019-06-10T02:01:53.677Z,5.43
2019-06-10T02:04:22.357Z,6.00
2019-06-10T02:06:53.871Z,10.00
2019-06-10T02:09:30.851Z,5.47
2019-06-10T02:11:59.103Z,7.30
2019-06-10T02:14:27.775Z,7.73
2019-06-10T02:16:56.551Z,7.07
2019-06-10T02:19:31.838Z,11.87
2019-06-10T02:22:02.051Z,11.13
2019-06-10T02:24:31.541Z,7.17
2019-06-10T02:27:01.990Z,6.70
2019-06-10T02:29:31.043Z,6.00
2019-06-10T02:32:04.289Z,6.23
2019-06-10T02:34:36.619Z,6.60
2019-06-10T02:37:04.359Z,5.90
2019-06-10T02:39:35.112Z,17.83
2019-06-10T02:42:07.240Z,8.43
2019-06-10T02:44:37.625Z,6.60
2019-06-10T02:47:06.299Z,6.73
2019-06-10T02:49:52.841Z,6.13
2019-06-10T02:52:20.050Z,10.37
2019-06-10T02:54:48.837Z,17.63
2019-06-10T02:57:21.254Z,16.30
2019-06-10T02:59:48.727Z,13.27
2019-06-10T03:02:18.243Z,7.73
2019-06-10T03:04:47.866Z,7.27
2019-06-10T03:07:17.913Z,8.97
2019-06-10T03:09:48.599Z,6.13
2019-06-10T03:12:17.644Z,8.37
2019-06-10T03:14:46.678Z,9.70
2019-06-10T03:17:19.931Z,4.67
2019-06-10T03:19:50.727Z,8.83
2019-06-10T03:22:20.599Z,6.70
2019-06-10T03:24:49.579Z,6.27
2019-06-10T03:27:18.408Z,6.17
2019-06-10T03:29:53.264Z,5.93
2019-06-10T03:32:33.268Z,5.57
2019-06-10T03:34:55.683Z,6.93
2019-06-10T03:37:27.587Z,10.70
2019-06-10T03:39:56.525Z,17.73
2019-06-10T03:42:26.561Z,7.37
2019-06-10T03:44:55.674Z,6.63
2019-06-10T03:47:27.133Z,7.23
2019-06-10T03:49:56.409Z,7.57
2019-06-10T03:52:26.806Z,6.80
2019-06-10T03:54:56.115Z,5.03
2019-06-10T03:57:26.845Z,6.63
2019-06-10T03:59:55.273Z,8.90
2019-06-10T04:02:26.842Z,6.90
2019-06-10T04:04:58.697Z,9.70
2019-06-10T04:07:30.929Z,6.97
2019-06-10T04:09:58.254Z,6.43
2019-06-10T04:12:27.833Z,6.83
2019-06-10T04:14:57.345Z,5.63
2019-06-10T04:17:27.369Z,6.43
2019-06-10T04:20:09.251Z,8.10
2019-06-10T04:22:28.495Z,9.83
2019-06-10T04:24:57.402Z,5.23
2019-06-10T04:27:27.166Z,5.80
2019-06-10T04:29:57.023Z,6.80
2019-06-10T04:32:27.778Z,7.40
2019-06-10T04:34:57.110Z,6.00
2019-06-10T04:37:27.502Z,8.33
2019-06-10T04:39:57.573Z,32.83
2019-06-10T04:42:27.343Z,8.27
2019-06-10T04:44:57.399Z,8.63
2019-06-10T04:47:28.366Z,6.87
2019-06-10T04:49:57.532Z,6.73
2019-06-10T04:52:28.042Z,8.10
2019-06-10T04:54:56.934Z,7.07
2019-06-10T04:57:28.390Z,11.00
2019-06-10T04:59:57.927Z,7.20
2019-06-10T05:02:28.949Z,6.43
2019-06-10T05:04:58.247Z,14.13
2019-06-10T05:07:31.948Z,6.97
2019-06-10T05:09:57.547Z,5.70
2019-06-10T05:12:29.638Z,9.03
2019-06-10T05:14:58.542Z,14.70
2019-06-10T05:17:29.677Z,9.13
2019-06-10T05:19:58.735Z,6.70
2019-06-10T05:22:28.475Z,7.00
2019-06-10T05:25:02.524Z,8.20
2019-06-10T05:27:33.001Z,7.30
2019-06-10T05:30:02.326Z,9.57
2019-06-10T05:32:34.186Z,6.20
2019-06-10T05:35:03.603Z,18.83
2019-06-10T05:37:33.913Z,6.00
2019-06-10T05:40:03.497Z,6.13
2019-06-10T05:42:35.609Z,7.60
2019-06-10T05:45:03.232Z,8.67
2019-06-10T05:47:35.828Z,7.93
2019-06-10T05:50:03.253Z,7.60
2019-06-10T05:52:33.834Z,6.03
2019-06-10T05:55:02.997Z,7.63
2019-06-10T05:57:33.495Z,8.13
2019-06-10T06:00:07.154Z,7.20
2019-06-10T06:02:35.074Z,7.60
2019-06-10T06:05:03.011Z,8.07
2019-06-10T06:07:35.241Z,7.67
2019-06-10T06:10:03.139Z,7.00
2019-06-10T06:12:37.897Z,7.40
2019-06-10T06:15:07.102Z,6.00
2019-06-10T06:17:35.775Z,7.80
2019-06-10T06:20:06.429Z,6.93
2019-06-10T06:22:35.665Z,7.20
2019-06-10T06:25:07.938Z,19.13
2019-06-10T06:27:38.245Z,7.90
2019-06-10T06:30:11.332Z,7.37
2019-06-10T06:32:38.199Z,6.57
2019-06-10T06:35:08.353Z,6.67
2019-06-10T06:37:39.722Z,6.30
2019-06-10T06:40:08.903Z,7.37
2019-06-10T06:42:39.434Z,10.87
2019-06-10T06:45:09.243Z,6.40
2019-06-10T06:47:39.415Z,8.97
2019-06-10T06:50:09.659Z,13.40
2019-06-10T06:53:10.170Z,7.73
2019-06-10T06:55:12.685Z,8.50
2019-06-10T06:57:43.150Z,6.33
2019-06-10T07:00:35.380Z,6.80
2019-06-10T07:02:43.503Z,8.43
2019-06-10T07:05:12.725Z,11.83
2019-06-10T07:07:43.337Z,7.00
2019-06-10T07:10:12.754Z,6.93
2019-06-10T07:12:44.473Z,6.43
2019-06-10T07:15:14.433Z,12.23
2019-06-10T07:17:45.604Z,8.43
2019-06-10T07:20:15.327Z,6.90
2019-06-10T07:22:46.621Z,11.73
2019-06-10T07:25:14.700Z,7.80
2019-06-10T07:27:46.411Z,7.17
2019-06-10T07:30:15.128Z,7.40
2019-06-10T07:32:47.069Z,8.33
2019-06-10T07:35:14.513Z,6.30
2019-06-10T07:37:45.973Z,7.63
2019-06-10T07:40:14.994Z,7.47
2019-06-10T07:42:45.473Z,7.63
2019-06-10T07:45:14.445Z,10.77
2019-06-10T07:47:44.253Z,7.97
2019-06-10T07:50:14.997Z,7.27
2019-06-10T07:52:46.600Z,6.70
2019-06-10T07:55:14.670Z,5.87
2019-06-10T07:57:45.532Z,7.83
2019-06-10T08:00:15.712Z,8.67
2019-06-10T08:02:45.964Z,8.40
2019-06-10T08:05:16.040Z,10.70
2019-06-10T08:07:47.181Z,10.23
2019-06-10T08:10:15.443Z,10.33
2019-06-10T08:12:46.466Z,5.30
2019-06-10T08:15:14.604Z,6.43
2019-06-10T08:17:45.629Z,6.37
2019-06-10T08:20:22.160Z,5.87
2019-06-10T08:22:55.201Z,7.67
2019-06-10T08:25:22.865Z,6.00
2019-06-10T08:27:53.003Z,7.10
2019-06-10T08:30:26.717Z,6.63
2019-06-10T08:32:56.031Z,9.57
2019-06-10T08:35:35.882Z,6.90
2019-06-10T08:37:56.208Z,6.60
2019-06-10T08:40:25.318Z,6.53
2019-06-10T08:42:57.535Z,6.37
2019-06-10T08:45:29.042Z,6.17
2019-06-10T08:47:59.546Z,7.37
2019-06-10T08:50:28.496Z,6.33
2019-06-10T08:53:11.857Z,6.47
2019-06-10T08:55:27.696Z,7.27
2019-06-10T08:57:58.283Z,7.00
2019-06-10T09:00:27.075Z,7.57
2019-06-10T09:02:56.799Z,6.60
2019-06-10T09:05:25.528Z,7.13
2019-06-10T09:07:54.637Z,7.60
2019-06-10T09:10:23.849Z,6.10
2019-06-10T09:12:54.637Z,7.83
2019-06-10T09:15:23.737Z,13.80
2019-06-10T09:17:55.932Z,7.17
2019-06-10T09:20:23.212Z,5.30
2019-06-10T09:23:13.296Z,10.40
2019-06-10T09:25:22.697Z,6.50
2019-06-10T09:27:54.245Z,6.40
2019-06-10T09:30:22.718Z,9.00
2019-06-10T09:32:56.251Z,6.57
2019-06-10T09:35:24.082Z,6.37
2019-06-10T09:37:56.126Z,6.37
2019-06-10T09:40:45.387Z,6.03
2019-06-10T09:43:12.843Z,7.17
2019-06-10T09:45:45.893Z,6.97
2019-06-10T09:48:13.374Z,10.70
2019-06-10T09:50:47.024Z,7.33
2019-06-10T09:53:28.927Z,7.70
2019-06-10T09:55:49.122Z,9.70
2019-06-10T09:58:15.033Z,11.67
2019-06-10T10:00:50.473Z,8.77
2019-06-10T10:03:16.369Z,8.30
2019-06-10T10:05:55.686Z,7.87
2019-06-10T10:08:15.652Z,12.30
2019-06-10T10:10:49.418Z,7.00
2019-06-10T10:13:14.951Z,7.47
2019-06-10T10:15:48.143Z,8.50
2019-06-10T10:18:18.250Z,7.07
2019-06-10T10:20:49.580Z,19.03
2019-06-10T10:23:17.430Z,6.83
2019-06-10T10:25:48.207Z,6.80
2019-06-10T10:28:17.649Z,6.43
2019-06-10T10:30:50.300Z,7.53
2019-06-10T10:33:17.869Z,13.97
2019-06-10T10:35:48.029Z,9.17
2019-06-10T10:38:17.039Z,8.23
2019-06-10T10:40:49.014Z,8.03
2019-06-10T10:43:29.004Z,7.20
2019-06-10T10:45:50.340Z,7.70
2019-06-10T10:48:18.201Z,6.70
2019-06-10T10:50:47.492Z,7.60
2019-06-10T10:53:16.180Z,6.50
2019-06-10T10:55:47.208Z,6.47
2019-06-10T10:58:16.223Z,6.00
2019-06-10T11:00:51.604Z,6.20
2019-06-10T11:03:19.345Z,7.57
2019-06-10T11:05:51.457Z,6.63
2019-06-10T11:08:19.876Z,9.40
2019-06-10T11:10:59.250Z,6.20
2019-06-10T11:13:26.884Z,8.43
2019-06-10T11:15:57.128Z,5.50
2019-06-10T11:18:26.280Z,5.50
2019-06-10T11:20:54.942Z,10.60
2019-06-10T11:23:25.000Z,7.50
2019-06-10T11:25:57.173Z,6.87
2019-06-10T11:28:27.909Z,6.67
2019-06-10T11:30:59.559Z,5.37
2019-06-10T11:33:28.239Z,16.53
2019-06-10T11:35:59.350Z,5.03
2019-06-10T11:38:32.957Z,6.47
2019-06-10T11:41:01.698Z,6.53
2019-06-10T11:43:32.856Z,10.50
2019-06-10T11:46:06.768Z,6.27
2019-06-10T11:48:32.831Z,5.90
2019-06-10T11:51:04.671Z,5.73
2019-06-10T11:53:34.424Z,13.47
2019-06-10T11:56:02.970Z,7.17
2019-06-10T11:58:33.267Z,6.10
2019-06-10T12:01:08.357Z,5.80
2019-06-10T12:03:36.994Z,5.93
2019-06-10T12:06:05.969Z,7.40
2019-06-10T12:08:36.027Z,6.73
2019-06-10T12:11:06.047Z,6.90
2019-06-10T12:13:34.959Z,5.20
2019-06-10T12:17:12.277Z,6.17
2019-06-10T12:18:36.238Z,7.17
2019-06-10T12:21:05.990Z,6.23
2019-06-10T12:23:35.011Z,5.60
2019-06-10T12:26:05.026Z,5.17
2019-06-10T12:28:35.787Z,5.33
2019-06-10T12:31:07.429Z,7.93
2019-06-10T12:33:37.723Z,5.50
2019-06-10T12:36:09.618Z,4.50
2019-06-10T12:38:38.587Z,16.60
2019-06-10T12:41:10.018Z,4.83
2019-06-10T12:43:37.832Z,19.10
2019-06-10T12:46:07.793Z,6.07
2019-06-10T12:48:37.785Z,4.60
2019-06-10T12:51:09.454Z,4.17
2019-06-10T12:53:38.174Z,6.90
2019-06-10T12:56:10.932Z,4.13
2019-06-10T12:58:37.544Z,4.90
2019-06-10T13:01:07.958Z,4.20
2019-06-10T13:03:36.858Z,4.87
2019-06-10T13:06:07.985Z,5.50
2019-06-10T13:08:36.070Z,4.37
2019-06-10T13:11:04.889Z,5.10
2019-06-10T13:13:33.571Z,4.87
2019-06-10T13:16:07.869Z,5.00
2019-06-10T13:18:34.405Z,4.10
2019-06-10T13:21:10.913Z,5.03
2019-06-10T13:23:35.403Z,7.33
2019-06-10T13:26:12.155Z,4.73
2019-06-10T13:28:35.235Z,5.20
2019-06-10T13:31:07.499Z,12.53
2019-06-10T13:33:34.523Z,5.57
2019-06-10T13:36:05.454Z,5.10
2019-06-10T13:38:33.689Z,4.57
2019-06-10T13:41:03.998Z,5.07
2019-06-10T13:43:33.930Z,8.17
2019-06-10T13:46:05.667Z,4.70
2019-06-10T13:48:33.342Z,5.07
2019-06-10T13:51:07.213Z,4.20
2019-06-10T13:53:32.361Z,5.67
2019-06-10T13:56:24.732Z,5.53
2019-06-10T13:58:31.786Z,9.37
2019-06-10T14:01:05.293Z,4.20
2019-06-10T14:03:32.850Z,4.90
2019-06-10T14:06:18.130Z,5.30
2019-06-10T14:08:33.447Z,6.00
2019-06-10T14:11:07.322Z,5.30
2019-06-10T14:13:34.022Z,12.40
2019-06-10T14:16:03.511Z,4.73
2019-06-10T14:18:33.430Z,5.70
2019-06-10T14:21:05.253Z,5.73
2019-06-10T14:23:33.201Z,5.40
2019-06-10T14:26:03.214Z,5.50
2019-06-10T14:28:40.604Z,5.83
2019-06-10T14:31:14.927Z,5.27
2019-06-10T14:33:33.281Z,5.97
2019-06-10T14:36:05.082Z,5.70
2019-06-10T14:38:33.436Z,5.33
2019-06-10T14:41:03.341Z,7.37
2019-06-10T14:43:33.257Z,6.10
2019-06-10T14:46:02.861Z,4.67
2019-06-10T14:48:33.637Z,4.70
2019-06-10T14:51:03.281Z,4.63
2019-06-10T14:53:33.669Z,5.13
2019-06-10T14:56:04.405Z,5.83
2019-06-10T14:58:35.507Z,5.00
2019-06-10T15:01:09.537Z,6.43
2019-06-10T15:03:37.608Z,5.07
2019-06-10T15:06:09.170Z,5.00
2019-06-10T15:08:37.955Z,5.57
2019-06-10T15:11:07.534Z,6.03
2019-06-10T15:13:36.299Z,12.23
2019-06-10T15:16:05.040Z,5.87
2019-06-10T15:18:34.869Z,5.80
2019-06-10T15:21:06.558Z,8.00
2019-06-10T15:23:36.610Z,5.47
2019-06-10T15:26:07.898Z,5.87
2019-06-10T15:28:36.747Z,5.37
2019-06-10T15:31:05.746Z,6.00
2019-06-10T15:33:34.690Z,6.20
2019-06-10T15:36:04.690Z,5.80
2019-06-10T15:38:33.363Z,6.57
2019-06-10T15:41:02.037Z,5.90
2019-06-10T15:43:37.004Z,5.27
2019-06-10T15:46:05.744Z,5.47
2019-06-10T15:48:35.944Z,6.40
2019-06-10T15:51:05.936Z,6.53
2019-06-10T15:53:36.207Z,6.03
2019-06-10T15:56:23.775Z,6.50
2019-06-10T15:58:37.768Z,7.07
2019-06-10T16:01:06.632Z,6.43
2019-06-10T16:03:36.703Z,6.13
2019-06-10T16:06:06.464Z,5.97
2019-06-10T16:08:36.712Z,5.10
2019-06-10T16:11:06.724Z,6.40
2019-06-10T16:13:38.558Z,5.40
2019-06-10T16:16:08.681Z,6.90
2019-06-10T16:18:37.918Z,6.13
2019-06-10T16:21:06.848Z,6.90
2019-06-10T16:23:35.525Z,6.27
2019-06-10T16:26:04.287Z,7.87
2019-06-10T16:28:34.494Z,6.63
2019-06-10T16:31:03.215Z,6.50
2019-06-10T16:33:34.001Z,9.77
2019-06-10T16:36:08.864Z,10.80
2019-06-10T16:38:37.778Z,6.63
2019-06-10T16:41:07.894Z,6.63
2019-06-10T16:43:36.600Z,7.33
2019-06-10T16:46:05.593Z,7.27
2019-06-10T16:48:36.046Z,7.17
2019-06-10T16:51:07.497Z,6.37
2019-06-10T16:53:36.258Z,6.33
2019-06-10T16:56:05.331Z,6.63
2019-06-10T16:58:37.079Z,6.30
2019-06-10T17:01:07.114Z,6.60
2019-06-10T17:03:36.736Z,6.97
2019-06-10T17:06:05.505Z,7.90
2019-06-10T17:08:34.241Z,7.00
2019-06-10T17:11:03.471Z,7.60
2019-06-10T17:13:32.364Z,8.83
2019-06-10T17:16:03.336Z,15.13
2019-06-10T17:18:33.633Z,8.87
2019-06-10T17:21:03.308Z,8.73
2019-06-10T17:23:36.416Z,8.27
2019-06-10T17:26:04.618Z,18.50
2019-06-10T17:28:36.637Z,16.30
2019-06-10T17:31:04.175Z,9.53
2019-06-10T17:33:36.232Z,9.17
2019-06-10T17:36:05.386Z,12.00
2019-06-10T17:38:34.100Z,17.87
2019-06-10T17:41:03.345Z,14.03
2019-06-10T17:43:34.022Z,13.30
2019-06-10T17:46:03.858Z,17.20
2019-06-10T17:48:33.674Z,36.27
2019-06-10T17:51:02.957Z,16.23
2019-06-10T17:53:34.742Z,16.03
2019-06-10T17:56:03.331Z,15.17
2019-06-10T17:58:50.275Z,20.90
2019-06-10T18:01:03.836Z,15.83
2019-06-10T18:03:33.392Z,19.30
2019-06-10T18:06:02.916Z,14.50
2019-06-10T18:08:34.976Z,23.27
2019-06-10T18:11:03.202Z,22.80
2019-06-10T18:13:35.865Z,18.90
2019-06-10T18:16:04.099Z,16.40
2019-06-10T18:18:36.563Z,21.90
2019-06-10T18:21:03.626Z,20.10
2019-06-10T18:23:33.139Z,19.80
2019-06-10T18:26:03.334Z,20.57
2019-06-10T18:28:56.751Z,21.80
2019-06-10T18:31:06.485Z,19.43
2019-06-10T18:33:37.846Z,17.23
2019-06-10T18:36:06.191Z,19.57
2019-06-10T18:38:37.413Z,22.10
2019-06-10T18:41:07.348Z,22.43
2019-06-10T18:43:36.920Z,20.27
2019-06-10T18:46:06.911Z,41.33
2019-06-10T18:48:38.068Z,21.47
2019-06-10T18:51:06.870Z,19.40
2019-06-10T18:53:36.460Z,20.60
2019-06-10T18:56:05.352Z,24.53
2019-06-10T18:58:36.252Z,18.80
2019-06-10T19:01:07.969Z,20.87
2019-06-10T19:03:38.309Z,28.40
2019-06-10T19:06:14.688Z,20.37
2019-06-10T19:08:44.534Z,22.13
2019-06-10T19:11:13.393Z,31.27
2019-06-10T19:13:43.795Z,26.10
2019-06-10T19:16:13.544Z,23.90
2019-06-10T19:18:45.394Z,23.97
2019-06-10T19:21:17.537Z,24.93
2019-06-10T19:23:48.877Z,22.30
2019-06-10T19:26:18.058Z,30.57
2019-06-10T19:28:46.710Z,23.67
2019-06-10T19:31:15.446Z,25.00
2019-06-10T19:33:45.348Z,24.17
2019-06-10T19:36:14.287Z,23.27
2019-06-10T19:38:46.020Z,22.93
2019-06-10T19:41:18.199Z,23.33
2019-06-10T19:43:52.876Z,24.27
2019-06-10T19:46:23.339Z,23.80
2019-06-10T19:48:59.537Z,23.40
2019-06-10T19:51:22.813Z,32.13
2019-06-10T19:53:54.111Z,24.97
2019-06-10T19:56:26.270Z,23.57
2019-06-10T19:58:53.619Z,22.90
2019-06-10T20:01:23.358Z,23.43
2019-06-10T20:03:55.948Z,20.60
2019-06-10T20:06:28.566Z,24.17
2019-06-10T20:09:02.655Z,25.23
2019-06-10T20:11:32.231Z,29.33
2019-06-10T20:14:02.526Z,30.63
2019-06-10T20:16:35.609Z,25.57
2019-06-10T20:19:04.846Z,29.53
2019-06-10T20:21:33.561Z,29.60
2019-06-10T20:24:02.854Z,27.10
2019-06-10T20:26:38.474Z,31.43
2019-06-10T20:29:09.875Z,33.23
2019-06-10T20:31:38.869Z,26.47
2019-06-10T20:34:13.292Z,33.33
2019-06-10T20:36:43.777Z,34.63
2019-06-10T20:39:12.008Z,46.67
2019-06-10T20:41:46.774Z,34.10
2019-06-10T20:44:13.115Z,38.73
2019-06-10T20:46:44.997Z,43.43
2019-06-10T20:49:13.980Z,41.27
2019-06-10T20:51:59.085Z,45.20
2019-06-10T20:54:14.693Z,40.53
2019-06-10T20:56:45.944Z,47.00
2019-06-10T20:59:13.810Z,39.17
2019-06-10T21:01:49.034Z,42.73
2019-06-10T21:04:18.513Z,42.07
2019-06-10T21:06:49.626Z,47.03
2019-06-10T21:09:18.481Z,45.13
2019-06-10T21:11:48.585Z,41.73
2019-06-10T21:14:19.465Z,52.33
2019-06-10T21:16:51.079Z,43.73
2019-06-10T21:19:23.096Z,43.67
2019-06-10T21:21:54.492Z,53.27
2019-06-10T21:24:23.273Z,41.17
2019-06-10T21:26:55.807Z,42.17
2019-06-10T21:29:24.950Z,47.90
2019-06-10T21:31:56.448Z,40.67
2019-06-10T21:34:32.676Z,44.57
2019-06-10T21:37:03.294Z,37.20
2019-06-10T21:39:36.997Z,42.20
2019-06-10T21:42:15.183Z,40.23
2019-06-10T21:44:44.014Z,43.20
2019-06-10T21:47:13.025Z,38.47
2019-06-10T21:49:45.349Z,49.83
2019-06-10T21:52:16.190Z,46.63
2019-06-10T21:54:47.038Z,45.67
2019-06-10T21:57:18.566Z,43.37
2019-06-10T21:59:48.945Z,34.80
2019-06-10T22:02:20.423Z,35.37
2019-06-10T22:04:49.444Z,37.37
2019-06-10T22:07:19.494Z,35.43
2019-06-10T22:09:49.778Z,35.33
2019-06-10T22:12:18.911Z,38.43
2019-06-10T22:14:48.324Z,31.73
2019-06-10T22:17:17.016Z,35.17
2019-06-10T22:19:46.825Z,36.47
2019-06-10T22:22:15.581Z,42.37
2019-06-10T22:24:44.677Z,37.47
2019-06-10T22:27:13.806Z,37.33
2019-06-10T22:29:45.586Z,35.80
2019-06-10T22:32:17.394Z,37.17
2019-06-10T22:34:46.029Z,36.80
2019-06-10T22:37:18.263Z,40.30
2019-06-10T22:39:57.505Z,35.87
2019-06-10T22:42:27.633Z,34.97
2019-06-10T22:45:00.229Z,37.67
2019-06-10T22:47:35.667Z,35.60
2019-06-10T22:50:07.426Z,33.87
2019-06-10T22:52:37.532Z,31.30
2019-06-10T22:55:08.803Z,31.07
2019-06-10T22:57:43.933Z,33.93
2019-06-10T23:00:23.458Z,36.13
2019-06-10T23:02:56.502Z,39.47
2019-06-10T23:05:28.360Z,39.80
2019-06-10T23:07:57.419Z,46.37
2019-06-10T23:10:28.060Z,44.30
2019-06-10T23:12:58.167Z,42.73
2019-06-10T23:15:28.306Z,58.83
2019-06-10T23:17:58.792Z,58.57
2019-06-10T23:20:29.213Z,46.33
2019-06-10T23:22:59.249Z,46.70
2019-06-10T23:25:28.784Z,49.60
2019-06-10T23:28:00.623Z,41.13
2019-06-10T23:30:33.092Z,38.67
2019-06-10T23:33:02.047Z,63.97
2019-06-10T23:35:32.316Z,44.83
2019-06-10T23:38:05.018Z,42.63
2019-06-10T23:40:32.314Z,43.03
2019-06-10T23:43:03.837Z,53.23
2019-06-10T23:45:32.807Z,46.40
2019-06-10T23:48:04.872Z,48.67
2019-06-10T23:50:34.242Z,62.13
2019-06-10T23:53:07.712Z,39.87
2019-06-10T23:55:35.948Z,49.00
2019-06-10T23:58:05.191Z,53.13
